Time;durP1;ratioP1;P1;durP2;ratioP2;P2;SDS_P1;SDS_P2;PMS_P1;PMS_P2;Temp;Humidity;BMP_temperature;BMP_pressure;BME280_temperature;BME280_humidity;BME280_pressure;Samples;Min_cycle;Max_cycle;Signal;HPM_P1;HPM_P2
2022/03/07 00:00:54;;;;;;;21.52;12.63;;;;;;;;;;5086621;27;20103;-74
2022/03/07 00:03:20;;;;;;;16.85;8.95;;;;;;;;;;5068117;27;20048;-74
2022/03/07 00:05:46;;;;;;;21.70;11.65;;;;;;;;;;5069405;27;20029;-74
2022/03/07 00:08:12;;;;;;;21.58;10.70;;;;;;;;;;5074128;28;20128;-74
2022/03/07 00:10:38;;;;;;;29.10;12.13;;;;;;;;;;5087267;27;21391;-74
2022/03/07 00:13:04;;;;;;;13.80;8.43;;;;;;;;;;5095595;27;20048;-74
2022/03/07 00:15:30;;;;;;;25.25;13.15;;;;;;;;;;5086586;27;20040;-74
2022/03/07 00:17:57;;;;;;;27.38;12.48;;;;;;;;;;5077073;27;20040;-74
2022/03/07 00:20:23;;;;;;;25.45;11.02;;;;;;;;;;5088227;27;20036;-74
2022/03/07 00:22:49;;;;;;;25.30;11.60;;;;;;;;;;5076099;28;20450;-74
2022/03/07 00:25:16;;;;;;;20.90;11.35;;;;;;;;;;5073480;28;20036;-74
2022/03/07 00:27:42;;;;;;;23.73;10.30;;;;;;;;;;5074300;28;20045;-74
2022/03/07 00:30:09;;;;;;;20.30;12.10;;;;;;;;;;5088550;27;20083;-74
2022/03/07 00:32:35;;;;;;;17.23;11.30;;;;;;;;;;5073134;28;20525;-74
2022/03/07 00:35:01;;;;;;;26.30;13.75;;;;;;;;;;5093463;27;20083;-74
2022/03/07 00:37:28;;;;;;;31.17;13.60;;;;;;;;;;5086678;27;20072;-74
2022/03/07 00:39:54;;;;;;;26.42;13.15;;;;;;;;;;5074026;28;20045;-75
2022/03/07 00:42:20;;;;;;;25.88;11.55;;;;;;;;;;5071156;28;20367;-74
2022/03/07 00:44:46;;;;;;;20.85;11.13;;;;;;;;;;5066445;28;20051;-74
2022/03/07 00:47:12;;;;;;;27.63;14.20;;;;;;;;;;5076652;27;20043;-74
2022/03/07 00:49:38;;;;;;;24.13;9.60;;;;;;;;;;5092273;27;20036;-74
2022/03/07 00:52:05;;;;;;;22.73;9.82;;;;;;;;;;5072811;28;21102;-77
2022/03/07 00:54:31;;;;;;;16.88;9.35;;;;;;;;;;5075330;27;20033;-74
2022/03/07 00:56:57;;;;;;;21.50;11.98;;;;;;;;;;5075445;27;20101;-75
2022/03/07 00:59:23;;;;;;;26.75;10.93;;;;;;;;;;5094495;27;20045;-73
2022/03/07 01:01:49;;;;;;;16.00;9.02;;;;;;;;;;5073589;27;20051;-75
2022/03/07 01:04:15;;;;;;;20.00;9.85;;;;;;;;;;5093765;27;20048;-73
2022/03/07 01:06:41;;;;;;;23.35;11.15;;;;;;;;;;5088546;27;20044;-74
2022/03/07 01:09:07;;;;;;;17.35;9.75;;;;;;;;;;5072135;27;20167;-74
2022/03/07 01:11:36;;;;;;;23.25;10.57;;;;;;;;;;5095533;27;20052;-74
2022/03/07 01:14:02;;;;;;;19.98;9.98;;;;;;;;;;5088632;27;20376;-74
2022/03/07 01:16:28;;;;;;;19.30;11.18;;;;;;;;;;5067846;27;20118;-74
2022/03/07 01:18:54;;;;;;;20.55;10.23;;;;;;;;;;5074826;27;20526;-74
2022/03/07 01:21:20;;;;;;;12.57;7.70;;;;;;;;;;5088994;27;21026;-74
2022/03/07 01:23:46;;;;;;;26.17;10.27;;;;;;;;;;5095846;27;20039;-74
2022/03/07 01:26:12;;;;;;;23.05;10.55;;;;;;;;;;5073777;28;20080;-74
2022/03/07 01:28:38;;;;;;;21.60;10.27;;;;;;;;;;5090285;27;20083;-74
2022/03/07 01:31:04;;;;;;;17.77;9.82;;;;;;;;;;5094260;27;20070;-74
2022/03/07 01:33:30;;;;;;;15.82;10.30;;;;;;;;;;5066508;28;20124;-75
2022/03/07 01:35:57;;;;;;;18.63;9.80;;;;;;;;;;5073571;28;20055;-74
2022/03/07 01:38:23;;;;;;;22.63;11.55;;;;;;;;;;5073382;28;20087;-74
2022/03/07 01:40:50;;;;;;;20.50;10.25;;;;;;;;;;5095162;27;20286;-74
2022/03/07 01:43:17;;;;;;;19.77;9.68;;;;;;;;;;5067623;27;20040;-74
2022/03/07 01:45:43;;;;;;;19.10;9.65;;;;;;;;;;5067999;28;20486;-74
2022/03/07 01:48:09;;;;;;;21.30;10.77;;;;;;;;;;5087866;27;20123;-74
2022/03/07 01:50:35;;;;;;;21.25;11.02;;;;;;;;;;5071569;28;20040;-74
2022/03/07 01:53:02;;;;;;;22.23;10.18;;;;;;;;;;5088726;27;20047;-74
2022/03/07 01:55:28;;;;;;;15.45;9.02;;;;;;;;;;5069115;28;20101;-74
2022/03/07 01:57:55;;;;;;;20.63;11.55;;;;;;;;;;5076012;28;20034;-74
2022/03/07 02:00:23;;;;;;;22.73;9.05;;;;;;;;;;5089302;27;20165;-74
2022/03/07 02:02:49;;;;;;;17.38;8.77;;;;;;;;;;5087192;27;20078;-74
2022/03/07 02:05:15;;;;;;;22.73;9.38;;;;;;;;;;5073046;27;20044;-75
2022/03/07 02:07:41;;;;;;;19.00;9.70;;;;;;;;;;5068112;27;20192;-74
2022/03/07 02:10:08;;;;;;;23.50;10.35;;;;;;;;;;5088237;27;20040;-74
2022/03/07 02:12:35;;;;;;;20.70;10.13;;;;;;;;;;5072580;27;20045;-75
2022/03/07 02:15:01;;;;;;;17.60;8.50;;;;;;;;;;5070260;27;20117;-74
2022/03/07 02:17:27;;;;;;;21.40;9.20;;;;;;;;;;5066463;27;20129;-74
2022/03/07 02:19:53;;;;;;;15.35;8.90;;;;;;;;;;5064377;27;20039;-74
2022/03/07 02:22:19;;;;;;;16.58;8.77;;;;;;;;;;5072586;27;20040;-74
2022/03/07 02:24:45;;;;;;;14.93;9.18;;;;;;;;;;5071937;27;20172;-74
2022/03/07 02:27:12;;;;;;;17.25;6.72;;;;;;;;;;5066703;27;20838;-74
2022/03/07 02:29:38;;;;;;;17.38;9.15;;;;;;;;;;5089664;27;20054;-74
2022/03/07 02:32:05;;;;;;;19.67;9.55;;;;;;;;;;5070518;27;20076;-74
2022/03/07 02:34:32;;;;;;;9.63;5.32;;;;;;;;;;5087528;27;20553;-74
2022/03/07 02:36:58;;;;;;;20.13;8.15;;;;;;;;;;5069900;27;20040;-74
2022/03/07 02:39:24;;;;;;;22.60;10.27;;;;;;;;;;5086033;27;20517;-74
2022/03/07 02:41:50;;;;;;;19.00;11.25;;;;;;;;;;5088426;27;20045;-74
2022/03/07 02:44:17;;;;;;;13.32;8.70;;;;;;;;;;5067418;28;20040;-73
2022/03/07 02:46:43;;;;;;;16.92;8.15;;;;;;;;;;5071230;27;20126;-73
2022/03/07 02:49:09;;;;;;;16.42;10.20;;;;;;;;;;5071708;28;20040;-74
2022/03/07 02:51:35;;;;;;;16.58;9.20;;;;;;;;;;5067724;28;20075;-74
2022/03/07 02:54:01;;;;;;;19.65;8.70;;;;;;;;;;5068348;28;20040;-74
2022/03/07 02:56:28;;;;;;;19.13;9.52;;;;;;;;;;5067276;28;20052;-74
2022/03/07 02:58:54;;;;;;;17.95;9.88;;;;;;;;;;5091723;27;20852;-74
2022/03/07 03:01:20;;;;;;;17.52;7.20;;;;;;;;;;5058918;28;20045;-74
2022/03/07 03:03:46;;;;;;;18.05;9.20;;;;;;;;;;5074479;28;20059;-74
2022/03/07 03:06:12;;;;;;;17.45;7.97;;;;;;;;;;5070308;28;21037;-74
2022/03/07 03:08:38;;;;;;;21.67;10.95;;;;;;;;;;5067149;28;20044;-74
2022/03/07 03:11:04;;;;;;;23.58;11.32;;;;;;;;;;5064733;28;20055;-74
2022/03/07 03:13:31;;;;;;;7.22;4.95;;;;;;;;;;5060496;28;20053;-73
2022/03/07 03:15:57;;;;;;;22.45;9.55;;;;;;;;;;5062046;28;20044;-73
2022/03/07 03:18:23;;;;;;;17.80;8.70;;;;;;;;;;5069798;28;20055;-74
2022/03/07 03:20:51;;;;;;;14.80;9.57;;;;;;;;;;5067757;28;20037;-74
2022/03/07 03:23:17;;;;;;;20.15;9.75;;;;;;;;;;5069632;28;20052;-74
2022/03/07 03:25:44;;;;;;;16.88;8.40;;;;;;;;;;5069998;28;20068;-73
2022/03/07 03:28:10;;;;;;;23.42;9.63;;;;;;;;;;5069895;28;20072;-73
2022/03/07 03:30:36;;;;;;;16.98;7.93;;;;;;;;;;5069124;28;20646;-74
2022/03/07 03:33:02;;;;;;;26.33;10.20;;;;;;;;;;5070978;28;20048;-73
2022/03/07 03:35:29;;;;;;;17.95;8.73;;;;;;;;;;5073258;28;20778;-73
2022/03/07 03:37:58;;;;;;;21.67;11.48;;;;;;;;;;5069865;28;20047;-73
2022/03/07 03:40:24;;;;;;;14.80;8.27;;;;;;;;;;5069198;28;20040;-74
2022/03/07 03:42:50;;;;;;;16.38;10.20;;;;;;;;;;5072529;28;20078;-73
2022/03/07 03:45:16;;;;;;;16.27;6.55;;;;;;;;;;5064240;28;20076;-73
2022/03/07 03:47:43;;;;;;;16.55;7.97;;;;;;;;;;5069124;28;20040;-73
2022/03/07 03:50:10;;;;;;;21.85;10.15;;;;;;;;;;5073010;28;20048;-74
2022/03/07 03:52:37;;;;;;;9.15;6.43;;;;;;;;;;5069851;28;20132;-73
2022/03/07 03:55:03;;;;;;;23.63;10.93;;;;;;;;;;5072904;28;20037;-74
2022/03/07 03:57:29;;;;;;;20.38;9.38;;;;;;;;;;5072757;28;20177;-74
2022/03/07 03:59:56;;;;;;;15.73;8.30;;;;;;;;;;5067709;28;20045;-73
2022/03/07 04:02:22;;;;;;;20.23;7.82;;;;;;;;;;5079662;27;20130;-74
2022/03/07 04:04:48;;;;;;;18.63;10.32;;;;;;;;;;5074192;28;20147;-74
2022/03/07 04:07:14;;;;;;;16.25;10.13;;;;;;;;;;5068424;28;20052;-73
2022/03/07 04:09:40;;;;;;;15.35;8.20;;;;;;;;;;5090268;27;20049;-74
2022/03/07 04:12:07;;;;;;;15.65;7.50;;;;;;;;;;5097165;27;20587;-74
2022/03/07 04:14:33;;;;;;;21.13;10.02;;;;;;;;;;5071892;28;20068;-73
2022/03/07 04:16:59;;;;;;;18.98;8.82;;;;;;;;;;5077818;28;20114;-74
2022/03/07 04:19:26;;;;;;;22.35;11.82;;;;;;;;;;5089183;27;20066;-74
2022/03/07 04:21:52;;;;;;;12.90;6.53;;;;;;;;;;5091199;27;20121;-73
2022/03/07 04:24:19;;;;;;;20.33;9.48;;;;;;;;;;5077942;28;20032;-73
2022/03/07 04:26:46;;;;;;;19.77;10.55;;;;;;;;;;5091174;27;20098;-74
2022/03/07 04:29:12;;;;;;;20.50;7.88;;;;;;;;;;5072845;28;20569;-74
2022/03/07 04:31:42;;;;;;;16.05;10.05;;;;;;;;;;5075718;28;20068;-73
2022/03/07 04:34:09;;;;;;;22.10;10.52;;;;;;;;;;5094775;27;20437;-73
2022/03/07 04:36:36;;;;;;;31.27;11.80;;;;;;;;;;5074919;28;20044;-73
2022/03/07 04:39:03;;;;;;;23.08;10.77;;;;;;;;;;5072204;28;20032;-74
2022/03/07 04:41:29;;;;;;;15.20;7.68;;;;;;;;;;5093523;27;20123;-74
2022/03/07 04:43:55;;;;;;;16.95;8.90;;;;;;;;;;5072712;28;20833;-74
2022/03/07 04:46:21;;;;;;;20.40;10.07;;;;;;;;;;5091553;27;20043;-73
2022/03/07 04:48:48;;;;;;;19.10;8.27;;;;;;;;;;5079928;27;20044;-73
2022/03/07 04:51:14;;;;;;;16.75;8.15;;;;;;;;;;5094441;27;20043;-74
2022/03/07 04:53:40;;;;;;;21.35;11.75;;;;;;;;;;5094049;27;20036;-74
2022/03/07 04:56:06;;;;;;;18.40;8.60;;;;;;;;;;5074273;27;20040;-74
2022/03/07 04:58:32;;;;;;;22.08;9.55;;;;;;;;;;5070791;27;20040;-73
2022/03/07 05:00:59;;;;;;;17.00;6.72;;;;;;;;;;5093998;27;20048;-74
2022/03/07 05:03:25;;;;;;;17.05;8.20;;;;;;;;;;5069929;27;20064;-74
2022/03/07 05:05:51;;;;;;;24.48;11.35;;;;;;;;;;5072104;27;20037;-73
2022/03/07 05:08:18;;;;;;;21.48;9.10;;;;;;;;;;5093233;27;20540;-73
2022/03/07 05:10:44;;;;;;;14.13;8.82;;;;;;;;;;5074968;27;20040;-73
2022/03/07 05:13:10;;;;;;;17.17;8.98;;;;;;;;;;5078998;27;20042;-74
2022/03/07 05:15:36;;;;;;;23.75;11.88;;;;;;;;;;5076016;27;20128;-73
2022/03/07 05:18:03;;;;;;;23.05;12.15;;;;;;;;;;5070465;27;20064;-74
2022/03/07 05:20:29;;;;;;;18.15;7.18;;;;;;;;;;5094707;27;20127;-74
2022/03/07 05:22:55;;;;;;;18.70;8.50;;;;;;;;;;5093912;27;20054;-74
2022/03/07 05:25:22;;;;;;;19.42;10.00;;;;;;;;;;5068131;27;20586;-74
2022/03/07 05:27:48;;;;;;;17.25;8.35;;;;;;;;;;5084958;27;20048;-73
2022/03/07 05:30:16;;;;;;;23.63;11.35;;;;;;;;;;5090408;27;20045;-73
2022/03/07 05:32:43;;;;;;;17.70;9.13;;;;;;;;;;5071421;28;20098;-75
2022/03/07 05:35:09;;;;;;;18.55;8.70;;;;;;;;;;5093506;27;20036;-74
2022/03/07 05:37:35;;;;;;;19.42;8.18;;;;;;;;;;5077147;28;20049;-74
2022/03/07 05:40:02;;;;;;;17.80;9.45;;;;;;;;;;5071646;28;20144;-74
2022/03/07 05:42:28;;;;;;;17.02;8.70;;;;;;;;;;5070026;28;20055;-73
2022/03/07 05:44:54;;;;;;;19.77;8.73;;;;;;;;;;5090731;27;20044;-74
2022/03/07 05:47:20;;;;;;;22.65;9.68;;;;;;;;;;5069976;28;20040;-74
2022/03/07 05:49:46;;;;;;;10.13;6.90;;;;;;;;;;5073778;28;20437;-74
2022/03/07 05:52:12;;;;;;;11.35;7.05;;;;;;;;;;5084806;27;20044;-74
2022/03/07 05:54:38;;;;;;;19.08;9.18;;;;;;;;;;5071354;28;20547;-73
2022/03/07 05:57:04;;;;;;;19.20;8.85;;;;;;;;;;5086210;27;20039;-73
2022/03/07 05:59:30;;;;;;;14.90;8.15;;;;;;;;;;5067829;28;20056;-74
2022/03/07 06:01:56;;;;;;;16.95;8.10;;;;;;;;;;5074457;27;20046;-74
2022/03/07 06:04:22;;;;;;;15.55;9.10;;;;;;;;;;5088242;27;20047;-74
2022/03/07 06:06:48;;;;;;;22.10;9.93;;;;;;;;;;5071020;27;20071;-74
2022/03/07 06:09:14;;;;;;;18.10;9.48;;;;;;;;;;5071005;27;20957;-74
2022/03/07 06:11:40;;;;;;;20.23;9.27;;;;;;;;;;5089177;27;20101;-74
2022/03/07 06:14:06;;;;;;;15.40;7.28;;;;;;;;;;5086169;27;20087;-74
2022/03/07 06:16:38;;;;;;;15.27;8.10;;;;;;;;;;5086148;27;20068;-74
2022/03/07 06:19:08;;;;;;;11.20;4.82;;;;;;;;;;5074758;27;20421;-83
2022/03/07 06:21:34;;;;;;;15.90;8.07;;;;;;;;;;5084426;27;20048;-78
2022/03/07 06:24:00;;;;;;;21.05;10.23;;;;;;;;;;5066527;27;20036;-76
2022/03/07 06:26:27;;;;;;;18.77;9.95;;;;;;;;;;5085286;27;20043;-75
2022/03/07 06:28:55;;;;;;;13.65;8.23;;;;;;;;;;5072862;28;20047;-80
2022/03/07 06:31:21;;;;;;;18.13;7.35;;;;;;;;;;5065622;27;20047;-76
2022/03/07 06:33:47;;;;;;;17.00;8.98;;;;;;;;;;5070517;27;20044;-75
2022/03/07 06:36:14;;;;;;;11.52;8.00;;;;;;;;;;5086366;27;20543;-75
2022/03/07 06:38:40;;;;;;;12.30;8.35;;;;;;;;;;5086874;27;20157;-75
2022/03/07 06:41:06;;;;;;;19.88;9.18;;;;;;;;;;5068910;27;20043;-75
2022/03/07 06:43:32;;;;;;;18.85;9.00;;;;;;;;;;5086665;27;20090;-78
2022/03/07 06:45:58;;;;;;;13.60;7.28;;;;;;;;;;5071256;27;20036;-76
2022/03/07 06:48:25;;;;;;;18.48;9.27;;;;;;;;;;5073912;28;20529;-75
2022/03/07 06:50:51;;;;;;;14.10;6.40;;;;;;;;;;5070889;28;20079;-82
2022/03/07 06:53:32;;;;;;;24.10;9.68;;;;;;;;;;5074359;27;20064;-82
2022/03/07 06:55:58;;;;;;;20.25;9.57;;;;;;;;;;5074339;28;20135;-77
2022/03/07 06:58:24;;;;;;;18.20;8.63;;;;;;;;;;5076963;27;20258;-76
2022/03/07 07:00:50;;;;;;;14.02;7.47;;;;;;;;;;5073979;27;20561;-82
2022/03/07 07:03:16;;;;;;;13.55;7.80;;;;;;;;;;5067871;28;20063;-78
2022/03/07 07:05:42;;;;;;;21.38;9.57;;;;;;;;;;5069273;28;20044;-77
2022/03/07 07:08:08;;;;;;;19.15;9.82;;;;;;;;;;5071241;28;20604;-77
2022/03/07 07:10:35;;;;;;;16.85;8.43;;;;;;;;;;5069734;28;20036;-77
2022/03/07 07:13:01;;;;;;;17.48;7.95;;;;;;;;;;5073450;28;20209;-77
2022/03/07 07:15:27;;;;;;;18.98;8.82;;;;;;;;;;5066840;28;20036;-77
2022/03/07 07:17:53;;;;;;;19.80;8.75;;;;;;;;;;5069476;28;20045;-76
2022/03/07 07:20:19;;;;;;;17.13;7.57;;;;;;;;;;5074117;28;20049;-78
2022/03/07 07:22:45;;;;;;;10.65;5.45;;;;;;;;;;5068645;28;20558;-78
2022/03/07 07:25:12;;;;;;;13.68;7.10;;;;;;;;;;5070599;28;20041;-79
2022/03/07 07:27:38;;;;;;;22.35;9.20;;;;;;;;;;5074567;28;20040;-80
2022/03/07 07:30:09;;;;;;;16.63;9.60;;;;;;;;;;5071541;28;20041;-78
2022/03/07 07:32:35;;;;;;;17.90;9.30;;;;;;;;;;5073530;28;20222;-78
2022/03/07 07:35:01;;;;;;;16.60;8.63;;;;;;;;;;5069677;28;20040;-78
2022/03/07 07:37:27;;;;;;;22.77;8.82;;;;;;;;;;5072222;28;20705;-77
2022/03/07 07:39:53;;;;;;;23.00;9.80;;;;;;;;;;5074117;28;20088;-78
2022/03/07 07:42:19;;;;;;;15.98;9.05;;;;;;;;;;5076690;28;20047;-79
2022/03/07 07:44:45;;;;;;;15.35;6.95;;;;;;;;;;5074784;28;20048;-78
2022/03/07 07:47:12;;;;;;;16.50;8.25;;;;;;;;;;5072850;28;20025;-78
2022/03/07 07:49:38;;;;;;;18.25;9.15;;;;;;;;;;5072557;28;20637;-78
2022/03/07 07:52:04;;;;;;;13.90;7.97;;;;;;;;;;5071728;28;20043;-77
2022/03/07 07:54:31;;;;;;;14.82;7.43;;;;;;;;;;5069861;28;20591;-78
2022/03/07 07:56:57;;;;;;;24.00;11.52;;;;;;;;;;5076243;28;20037;-78
2022/03/07 07:59:23;;;;;;;13.18;7.43;;;;;;;;;;5071188;28;20052;-78
2022/03/07 08:01:49;;;;;;;24.95;8.10;;;;;;;;;;5074036;28;20160;-78
2022/03/07 08:04:15;;;;;;;14.32;7.75;;;;;;;;;;5074769;28;20084;-78
2022/03/07 08:06:41;;;;;;;19.10;9.82;;;;;;;;;;5072202;28;20102;-78
2022/03/07 08:09:08;;;;;;;14.52;8.60;;;;;;;;;;5072827;28;20051;-77
2022/03/07 08:11:34;;;;;;;22.33;8.15;;;;;;;;;;5072997;28;20041;-78
2022/03/07 08:14:00;;;;;;;18.65;8.45;;;;;;;;;;5073831;28;20056;-78
2022/03/07 08:16:26;;;;;;;14.70;8.70;;;;;;;;;;5078716;28;20076;-78
2022/03/07 08:18:52;;;;;;;16.27;9.23;;;;;;;;;;5069357;28;20565;-78
2022/03/07 08:21:21;;;;;;;11.52;6.85;;;;;;;;;;5072987;28;20043;-78
2022/03/07 08:23:47;;;;;;;20.70;9.90;;;;;;;;;;5067083;28;20106;-78
2022/03/07 08:26:13;;;;;;;13.30;6.63;;;;;;;;;;5074667;28;20056;-77
2022/03/07 08:28:39;;;;;;;18.83;7.65;;;;;;;;;;5073817;28;20044;-77
2022/03/07 08:31:05;;;;;;;14.52;6.95;;;;;;;;;;5075138;28;20051;-78
2022/03/07 08:33:32;;;;;;;24.00;8.43;;;;;;;;;;5077445;28;20079;-77
2022/03/07 08:35:58;;;;;;;15.55;8.63;;;;;;;;;;5077818;28;20037;-78
2022/03/07 08:38:24;;;;;;;15.93;7.93;;;;;;;;;;5073286;28;20044;-77
2022/03/07 08:40:51;;;;;;;18.55;9.77;;;;;;;;;;5076760;28;20045;-77
2022/03/07 08:43:17;;;;;;;18.50;10.18;;;;;;;;;;5066985;28;20670;-77
2022/03/07 08:45:43;;;;;;;17.50;10.10;;;;;;;;;;5073108;28;20049;-78
2022/03/07 08:48:09;;;;;;;22.20;10.25;;;;;;;;;;5072681;28;20041;-77
2022/03/07 08:50:35;;;;;;;13.13;8.00;;;;;;;;;;5076288;28;20049;-78
2022/03/07 08:53:01;;;;;;;14.88;7.85;;;;;;;;;;5068132;28;20044;-78
2022/03/07 08:55:27;;;;;;;15.68;8.70;;;;;;;;;;5068774;28;20056;-78
2022/03/07 08:57:54;;;;;;;20.77;8.57;;;;;;;;;;5069672;28;20037;-78
2022/03/07 09:00:20;;;;;;;20.33;8.30;;;;;;;;;;5077902;28;20393;-79
2022/03/07 09:02:47;;;;;;;16.52;8.27;;;;;;;;;;5068788;28;20073;-77
2022/03/07 09:05:13;;;;;;;16.40;7.70;;;;;;;;;;5073587;28;20143;-78
2022/03/07 09:07:39;;;;;;;12.10;7.47;;;;;;;;;;5069096;28;20041;-78
2022/03/07 09:10:05;;;;;;;12.73;6.20;;;;;;;;;;5073122;28;20044;-78
2022/03/07 09:12:32;;;;;;;17.25;8.52;;;;;;;;;;5073934;28;20403;-78
2022/03/07 09:14:59;;;;;;;21.40;9.45;;;;;;;;;;5069706;28;20628;-78
2022/03/07 09:17:25;;;;;;;15.75;7.72;;;;;;;;;;5072980;28;20049;-78
2022/03/07 09:19:52;;;;;;;13.30;6.68;;;;;;;;;;5075132;28;20526;-77
2022/03/07 09:22:18;;;;;;;14.30;8.20;;;;;;;;;;5077407;28;20044;-78
2022/03/07 09:24:44;;;;;;;14.52;7.40;;;;;;;;;;5069973;28;20127;-78
2022/03/07 09:27:10;;;;;;;14.13;7.47;;;;;;;;;;5065157;28;20631;-78
2022/03/07 09:29:37;;;;;;;14.27;8.93;;;;;;;;;;5067649;28;20593;-77
2022/03/07 09:32:05;;;;;;;13.82;8.40;;;;;;;;;;5068662;28;20562;-77
2022/03/07 09:34:31;;;;;;;13.55;7.18;;;;;;;;;;5072041;28;20075;-77
2022/03/07 09:36:58;;;;;;;18.60;7.85;;;;;;;;;;5068348;28;20509;-78
2022/03/07 09:39:24;;;;;;;18.55;9.18;;;;;;;;;;5073478;28;20087;-77
2022/03/07 09:41:50;;;;;;;12.98;7.10;;;;;;;;;;5071725;28;20037;-77
2022/03/07 09:44:16;;;;;;;12.43;7.45;;;;;;;;;;5071879;28;20057;-78
2022/03/07 09:46:43;;;;;;;14.00;6.63;;;;;;;;;;5069514;28;20120;-77
2022/03/07 09:49:09;;;;;;;14.90;7.65;;;;;;;;;;5068132;28;20048;-77
2022/03/07 09:51:35;;;;;;;12.10;6.32;;;;;;;;;;5072014;28;20040;-78
2022/03/07 09:54:01;;;;;;;14.60;6.88;;;;;;;;;;5072485;28;20631;-77
2022/03/07 09:56:27;;;;;;;14.80;6.80;;;;;;;;;;5069130;28;20533;-77
2022/03/07 09:58:53;;;;;;;14.98;7.90;;;;;;;;;;5072707;28;20153;-77
2022/03/07 10:01:19;;;;;;;18.77;8.45;;;;;;;;;;5068546;28;20053;-78
2022/03/07 10:03:46;;;;;;;16.90;9.30;;;;;;;;;;5070601;28;20060;-78
2022/03/07 10:06:16;;;;;;;12.75;6.85;;;;;;;;;;5069628;28;20888;-78
2022/03/07 10:08:59;;;;;;;14.55;8.55;;;;;;;;;;5068065;28;20036;-78
2022/03/07 10:11:25;;;;;;;;;;;;;;;;;;5069395;28;20135;-78
2022/03/07 10:13:52;;;;;;;14.80;7.28;;;;;;;;;;5073486;28;19929;-78
2022/03/07 10:16:20;;;;;;;11.25;6.20;;;;;;;;;;5072322;28;20041;-77
2022/03/07 10:18:50;;;;;;;12.90;7.65;;;;;;;;;;5066663;28;20045;-77
2022/03/07 10:21:21;;;;;;;9.90;5.68;;;;;;;;;;5068518;28;20033;-77
2022/03/07 10:23:52;;;;;;;10.75;5.82;;;;;;;;;;5071290;28;20041;-78
2022/03/07 10:26:18;;;;;;;15.02;7.43;;;;;;;;;;5066237;28;20041;-77
2022/03/07 10:28:51;;;;;;;12.82;5.75;;;;;;;;;;5067255;28;20044;-77
2022/03/07 10:31:18;;;;;;;13.05;8.57;;;;;;;;;;5072890;28;20040;-78
2022/03/07 10:33:48;;;;;;;12.85;8.00;;;;;;;;;;5070936;28;20048;-78
2022/03/07 10:36:15;;;;;;;12.45;7.13;;;;;;;;;;5073126;28;20477;-77
2022/03/07 10:38:43;;;;;;;8.32;5.97;;;;;;;;;;5077604;28;20058;-78
2022/03/07 10:41:09;;;;;;;13.05;7.10;;;;;;;;;;5080132;28;20037;-78
2022/03/07 10:43:45;;;;;;;7.43;5.18;;;;;;;;;;5073787;28;20536;-77
2022/03/07 10:46:11;;;;;;;13.90;6.82;;;;;;;;;;5075049;28;20041;-77
2022/03/07 10:48:41;;;;;;;15.68;6.75;;;;;;;;;;5073393;28;20040;-77
2022/03/07 10:51:13;;;;;;;13.80;6.82;;;;;;;;;;5067854;28;21018;-77
2022/03/07 10:53:40;;;;;;;11.32;6.25;;;;;;;;;;5074399;28;20040;-77
2022/03/07 10:56:06;;;;;;;10.50;6.13;;;;;;;;;;5074822;28;20036;-77
2022/03/07 10:58:32;;;;;;;10.68;5.53;;;;;;;;;;5079056;28;20115;-77
2022/03/07 11:01:00;;;;;;;10.50;7.47;;;;;;;;;;5073387;28;20420;-77
2022/03/07 11:03:26;;;;;;;9.70;5.50;;;;;;;;;;5088769;27;20770;-78
2022/03/07 11:05:53;;;;;;;10.38;6.78;;;;;;;;;;5099929;27;20046;-77
2022/03/07 11:08:20;;;;;;;10.52;7.00;;;;;;;;;;5092489;27;20044;-77
2022/03/07 11:10:47;;;;;;;12.02;7.00;;;;;;;;;;5091920;27;20551;-78
2022/03/07 11:13:17;;;;;;;12.00;7.72;;;;;;;;;;5092859;27;20516;-77
2022/03/07 11:15:44;;;;;;;16.13;8.10;;;;;;;;;;5072862;27;20100;-77
2022/03/07 11:18:14;;;;;;;17.02;8.60;;;;;;;;;;5076739;28;20040;-78
2022/03/07 11:20:41;;;;;;;11.30;6.85;;;;;;;;;;5075573;28;20049;-77
2022/03/07 11:23:08;;;;;;;13.75;6.72;;;;;;;;;;5079914;28;20522;-78
2022/03/07 11:25:35;;;;;;;10.65;6.55;;;;;;;;;;5076433;27;20036;-78
2022/03/07 11:28:01;;;;;;;11.15;6.75;;;;;;;;;;5071507;27;20541;-78
2022/03/07 11:30:32;;;;;;;9.75;5.18;;;;;;;;;;5080973;27;20525;-78
2022/03/07 11:33:07;;;;;;;7.32;5.20;;;;;;;;;;5078123;28;20508;-77
2022/03/07 11:35:34;;;;;;;7.60;5.32;;;;;;;;;;5094832;27;20127;-78
2022/03/07 11:38:09;;;;;;;9.90;6.22;;;;;;;;;;5073494;28;20028;-78
2022/03/07 11:40:54;;;;;;;8.35;4.88;;;;;;;;;;5078487;28;20049;-77
2022/03/07 11:43:20;;;;;;;12.63;6.50;;;;;;;;;;5075696;27;20564;-78
2022/03/07 11:45:46;;;;;;;9.07;5.22;;;;;;;;;;5096623;27;20070;-77
2022/03/07 11:48:12;;;;;;;11.70;5.90;;;;;;;;;;5073518;27;20425;-77
2022/03/07 11:50:38;;;;;;;12.48;6.53;;;;;;;;;;5093419;27;20118;-78
2022/03/07 11:53:05;;;;;;;11.52;7.10;;;;;;;;;;5064426;28;20119;-77
2022/03/07 11:55:31;;;;;;;13.02;7.53;;;;;;;;;;5090946;27;20090;-77
2022/03/07 11:58:08;;;;;;;11.60;5.28;;;;;;;;;;5079426;28;20120;-78
2022/03/07 12:00:35;;;;;;;7.97;4.65;;;;;;;;;;5086741;27;20044;-77
2022/03/07 12:03:11;;;;;;;15.48;5.65;;;;;;;;;;5072746;28;20473;-78
2022/03/07 12:05:37;;;;;;;11.15;5.07;;;;;;;;;;5073571;27;20044;-78
2022/03/07 12:08:13;;;;;;;10.23;5.28;;;;;;;;;;5079300;27;20070;-78
2022/03/07 12:11:02;;;;;;;9.30;6.18;;;;;;;;;;5074364;27;20048;-78
2022/03/07 12:13:28;;;;;;;9.45;4.60;;;;;;;;;;5079780;28;20537;-77
2022/03/07 12:15:57;;;;;;;12.68;6.78;;;;;;;;;;5083528;27;20044;-78
2022/03/07 12:18:24;;;;;;;10.07;5.65;;;;;;;;;;5072217;28;20090;-77
2022/03/07 12:20:50;;;;;;;8.40;5.22;;;;;;;;;;5101131;27;20138;-78
2022/03/07 12:23:17;;;;;;;8.30;4.72;;;;;;;;;;5078066;28;20621;-77
2022/03/07 12:25:44;;;;;;;10.05;5.10;;;;;;;;;;5077225;28;20569;-77
2022/03/07 12:28:11;;;;;;;11.43;6.03;;;;;;;;;;5088894;27;20543;-77
2022/03/07 12:30:37;;;;;;;10.40;5.30;;;;;;;;;;5081662;28;20051;-78
2022/03/07 12:33:10;;;;;;;12.18;6.38;;;;;;;;;;5079325;28;20076;-78
2022/03/07 12:35:36;;;;;;;10.18;5.88;;;;;;;;;;5070771;28;20043;-78
2022/03/07 12:38:05;;;;;;;9.65;4.88;;;;;;;;;;5079939;27;20068;-78
2022/03/07 12:40:32;;;;;;;12.10;7.43;;;;;;;;;;5079411;27;20091;-78
2022/03/07 12:42:58;;;;;;;11.10;6.07;;;;;;;;;;5097372;27;20111;-78
2022/03/07 12:45:24;;;;;;;12.52;5.10;;;;;;;;;;5073171;28;20048;-78
2022/03/07 12:47:53;;;;;;;11.38;6.75;;;;;;;;;;5082373;28;20040;-78
2022/03/07 12:50:23;;;;;;;12.70;6.07;;;;;;;;;;5076102;28;20430;-79
2022/03/07 12:52:50;;;;;;;10.77;6.13;;;;;;;;;;5100430;27;20512;-78
2022/03/07 12:55:18;;;;;;;9.45;5.30;;;;;;;;;;5079439;28;20047;-78
2022/03/07 12:57:45;;;;;;;5.25;3.67;;;;;;;;;;5092726;27;20589;-78
2022/03/07 13:00:13;;;;;;;13.45;5.78;;;;;;;;;;5074214;28;20032;-78
2022/03/07 13:02:41;;;;;;;9.05;6.03;;;;;;;;;;5073225;28;20059;-78
2022/03/07 13:05:10;;;;;;;8.80;5.97;;;;;;;;;;5075096;28;20056;-78
2022/03/07 13:07:36;;;;;;;10.98;6.55;;;;;;;;;;5075568;28;20047;-78
2022/03/07 13:10:09;;;;;;;9.27;6.47;;;;;;;;;;5078511;27;20069;-78
2022/03/07 13:12:36;;;;;;;10.48;6.28;;;;;;;;;;5091957;27;20123;-78
2022/03/07 13:15:02;;;;;;;10.75;7.95;;;;;;;;;;5090165;27;20044;-78
2022/03/07 13:17:28;;;;;;;12.00;5.75;;;;;;;;;;5078376;28;20067;-78
2022/03/07 13:19:55;;;;;;;18.17;7.03;;;;;;;;;;5092226;27;20139;-78
2022/03/07 13:22:23;;;;;;;8.38;5.38;;;;;;;;;;5072238;28;20036;-78
2022/03/07 13:24:56;;;;;;;10.52;6.03;;;;;;;;;;5073227;28;20091;-79
2022/03/07 13:27:23;;;;;;;9.50;5.05;;;;;;;;;;5089974;27;20037;-78
2022/03/07 13:29:50;;;;;;;15.77;6.80;;;;;;;;;;5071045;28;20048;-78
2022/03/07 13:32:17;;;;;;;11.27;5.68;;;;;;;;;;5077900;28;20044;-78
2022/03/07 13:34:49;;;;;;;12.75;7.55;;;;;;;;;;5073948;28;20065;-78
2022/03/07 13:37:16;;;;;;;9.20;5.60;;;;;;;;;;5078432;28;20042;-78
2022/03/07 13:39:43;;;;;;;10.45;6.30;;;;;;;;;;5097002;27;20040;-78
2022/03/07 13:42:14;;;;;;;12.32;6.45;;;;;;;;;;5078190;28;20044;-78
2022/03/07 13:44:49;;;;;;;14.43;6.95;;;;;;;;;;5079110;28;20129;-78
2022/03/07 13:47:15;;;;;;;9.38;6.45;;;;;;;;;;5074702;28;20036;-78
2022/03/07 13:49:46;;;;;;;9.50;6.22;;;;;;;;;;5075979;28;20040;-78
2022/03/07 13:52:16;;;;;;;11.20;6.18;;;;;;;;;;5088512;27;20044;-78
2022/03/07 13:54:42;;;;;;;15.90;7.72;;;;;;;;;;5072783;28;20097;-77
2022/03/07 13:57:08;;;;;;;12.68;7.07;;;;;;;;;;5069766;28;20033;-78
2022/03/07 13:59:35;;;;;;;8.88;5.68;;;;;;;;;;5090003;27;20044;-79
2022/03/07 14:02:12;;;;;;;14.80;7.57;;;;;;;;;;5073269;28;20048;-78
2022/03/07 14:04:38;;;;;;;11.95;6.82;;;;;;;;;;5087064;27;20048;-79
2022/03/07 14:07:05;;;;;;;12.10;6.97;;;;;;;;;;5086992;27;20044;-78
2022/03/07 14:09:31;;;;;;;13.10;6.90;;;;;;;;;;5077981;27;20094;-78
2022/03/07 14:12:01;;;;;;;13.50;6.35;;;;;;;;;;5074659;27;20051;-78
2022/03/07 14:14:27;;;;;;;13.00;7.30;;;;;;;;;;5092655;27;20497;-78
2022/03/07 14:16:54;;;;;;;10.13;6.78;;;;;;;;;;5072835;27;20048;-78
2022/03/07 14:19:20;;;;;;;14.93;7.03;;;;;;;;;;5067499;27;20652;-78
2022/03/07 14:21:46;;;;;;;14.05;8.48;;;;;;;;;;5073350;28;20131;-77
2022/03/07 14:24:12;;;;;;;14.07;6.75;;;;;;;;;;5092186;27;20600;-78
2022/03/07 14:26:38;;;;;;;12.70;7.75;;;;;;;;;;5072633;28;20040;-78